createdAt,value
2018-11-06T00:01:45.628Z,75.79
2018-11-06T00:04:25.602Z,72.46
2018-11-06T00:07:01.551Z,73.02
2018-11-06T00:09:37.592Z,74.01
2018-11-06T00:12:13.518Z,74.39
2018-11-06T00:14:49.575Z,74.04
2018-11-06T00:17:25.620Z,74.29
2018-11-06T00:20:01.498Z,75.63
2018-11-06T00:22:37.655Z,75.24
2018-11-06T00:25:14.657Z,73.45
2018-11-06T00:27:50.493Z,72.73
2018-11-06T00:30:26.325Z,72.33
2018-11-06T00:33:02.142Z,71.57
2018-11-06T00:35:38.022Z,73.12
2018-11-06T00:38:13.871Z,73.80
2018-11-06T00:40:49.928Z,74.88
2018-11-06T00:43:25.885Z,75.41
2018-11-06T00:46:01.817Z,73.91
2018-11-06T00:48:37.792Z,72.84
2018-11-06T00:51:13.668Z,73.94
2018-11-06T00:53:49.903Z,74.65
2018-11-06T00:56:25.910Z,75.07
2018-11-06T00:59:01.978Z,76.42
2018-11-06T01:01:38.425Z,77.05
2018-11-06T01:04:15.115Z,74.54
2018-11-06T01:06:51.174Z,75.30
2018-11-06T01:09:27.181Z,75.15
2018-11-06T01:12:03.138Z,74.74
2018-11-06T01:14:39.117Z,76.28
2018-11-06T01:17:15.360Z,76.46
2018-11-06T01:19:51.149Z,78.02
2018-11-06T01:22:30.140Z,78.54
2018-11-06T01:25:06.791Z,79.48
2018-11-06T01:27:42.888Z,78.81
2018-11-06T01:30:20.105Z,78.77
2018-11-06T01:32:55.871Z,77.85
2018-11-06T01:35:31.702Z,76.21
2018-11-06T01:38:07.659Z,77.32
2018-11-06T01:40:43.514Z,78.14
2018-11-06T01:43:19.540Z,78.64
2018-11-06T01:45:56.419Z,75.92
2018-11-06T01:48:32.463Z,76.72
2018-11-06T01:51:08.301Z,77.83
2018-11-06T01:53:44.175Z,78.21
2018-11-06T01:56:20.176Z,80.48
2018-11-06T01:58:56.247Z,75.79
2018-11-06T02:01:32.110Z,75.24
2018-11-06T02:04:08.029Z,72.94
2018-11-06T02:06:44.375Z,73.76
2018-11-06T02:09:20.338Z,74.93
2018-11-06T02:11:56.112Z,75.32
2018-11-06T02:14:32.076Z,75.17
2018-11-06T02:17:08.091Z,75.42
2018-11-06T02:19:44.010Z,74.69
2018-11-06T02:22:19.961Z,78.31
2018-11-06T02:24:55.870Z,81.52
2018-11-06T02:27:31.795Z,84.69
2018-11-06T02:30:09.628Z,83.30
2018-11-06T02:32:46.572Z,81.24
2018-11-06T02:35:22.584Z,79.51
2018-11-06T02:37:58.390Z,79.83
2018-11-06T02:40:34.262Z,78.57
2018-11-06T02:43:10.238Z,77.61
2018-11-06T02:45:46.395Z,77.35
2018-11-06T02:48:22.297Z,78.62
2018-11-06T02:50:58.212Z,78.77
2018-11-06T02:53:34.072Z,78.63
2018-11-06T02:56:09.957Z,79.17
2018-11-06T02:58:45.913Z,78.98
2018-11-06T03:01:21.885Z,78.94
2018-11-06T03:03:57.915Z,79.00
2018-11-06T03:06:33.844Z,77.52
2018-11-06T03:09:09.915Z,76.22
2018-11-06T03:11:45.901Z,75.12
2018-11-06T03:14:21.783Z,75.15
2018-11-06T03:16:57.823Z,75.48
2018-11-06T03:19:33.993Z,75.60
2018-11-06T03:22:09.912Z,74.64
2018-11-06T03:24:45.695Z,76.55
2018-11-06T03:27:21.681Z,78.19
2018-11-06T03:29:57.715Z,79.33
2018-11-06T03:32:33.635Z,80.87
2018-11-06T03:35:11.005Z,82.28
2018-11-06T03:37:46.905Z,83.80
2018-11-06T03:40:22.884Z,81.72
2018-11-06T03:42:58.764Z,81.18
2018-11-06T03:45:34.642Z,81.09
2018-11-06T03:48:10.698Z,81.55
2018-11-06T03:50:46.677Z,81.36
2018-11-06T03:53:22.534Z,80.54
2018-11-06T03:55:58.389Z,80.46
2018-11-06T03:58:34.305Z,81.43
2018-11-06T04:01:10.304Z,82.08
2018-11-06T04:03:46.281Z,81.96
2018-11-06T04:06:22.361Z,79.91
2018-11-06T04:08:58.328Z,78.98
2018-11-06T04:11:34.189Z,76.42
2018-11-06T04:14:11.154Z,78.04
2018-11-06T04:16:47.003Z,77.15
2018-11-06T04:19:23.055Z,76.80
2018-11-06T04:21:58.914Z,76.25
2018-11-06T04:24:34.904Z,77.53
2018-11-06T04:27:10.809Z,77.34
2018-11-06T04:29:46.684Z,76.61
2018-11-06T04:32:22.580Z,78.10
2018-11-06T04:34:58.471Z,78.16
2018-11-06T04:37:34.469Z,79.04
2018-11-06T04:40:12.697Z,78.99
2018-11-06T04:42:48.720Z,78.57
2018-11-06T04:45:24.634Z,79.39
2018-11-06T04:48:00.520Z,77.62
2018-11-06T04:50:36.704Z,78.40
2018-11-06T04:53:12.533Z,79.96
2018-11-06T04:55:48.470Z,78.89
2018-11-06T04:58:24.311Z,82.34
2018-11-06T05:01:00.806Z,83.32
2018-11-06T05:03:41.456Z,83.59
2018-11-06T05:06:18.483Z,83.78
2018-11-06T05:08:54.438Z,82.70
2018-11-06T05:11:30.396Z,82.09
2018-11-06T05:14:06.798Z,81.67
2018-11-06T05:16:42.905Z,82.72
2018-11-06T05:19:22.587Z,81.98
2018-11-06T05:21:58.698Z,80.13
2018-11-06T05:24:37.121Z,80.04
2018-11-06T05:27:13.106Z,81.30
2018-11-06T05:29:49.176Z,82.78
2018-11-06T05:33:49.183Z,82.22
2018-11-06T05:36:27.269Z,82.27
2018-11-06T05:39:03.317Z,80.21
2018-11-06T05:41:39.514Z,82.26
2018-11-06T05:44:15.572Z,81.94
2018-11-06T05:46:51.484Z,83.12
2018-11-06T05:49:27.448Z,82.45
2018-11-06T05:52:03.536Z,79.91
2018-11-06T05:54:39.377Z,77.55
2018-11-06T05:57:15.204Z,76.95
2018-11-06T05:59:51.068Z,75.83
2018-11-06T06:02:26.933Z,76.29
2018-11-06T06:05:02.804Z,73.93
2018-11-06T06:07:38.701Z,73.16
2018-11-06T06:10:14.608Z,71.74
2018-11-06T06:12:50.518Z,71.12
2018-11-06T06:15:26.619Z,70.84
2018-11-06T06:18:02.600Z,72.33
2018-11-06T06:20:39.280Z,73.01
2018-11-06T06:23:15.062Z,72.62
2018-11-06T06:25:50.934Z,74.17
2018-11-06T06:28:26.764Z,75.99
2018-11-06T06:31:02.843Z,77.08
2018-11-06T06:33:38.713Z,76.84
2018-11-06T06:36:14.635Z,75.69
2018-11-06T06:38:50.741Z,73.79
2018-11-06T06:41:27.002Z,73.46
2018-11-06T06:44:03.122Z,71.69
2018-11-06T06:46:39.291Z,69.06
2018-11-06T06:49:20.399Z,68.65
2018-11-06T06:51:56.325Z,68.61
2018-11-06T06:54:32.451Z,67.03
2018-11-06T06:57:08.549Z,66.95
2018-11-06T06:59:44.797Z,66.81
2018-11-06T07:02:20.810Z,66.61
2018-11-06T07:04:56.833Z,67.10
2018-11-06T07:07:32.784Z,66.80
2018-11-06T07:10:11.193Z,66.54
2018-11-06T07:12:48.026Z,64.62
2018-11-06T07:15:24.017Z,63.49
2018-11-06T07:17:59.948Z,61.79
2018-11-06T07:20:35.845Z,63.73
2018-11-06T07:23:11.776Z,61.61
2018-11-06T07:25:47.519Z,62.11
2018-11-06T07:28:23.429Z,61.99
2018-11-06T07:31:03.454Z,63.88
2018-11-06T07:33:39.489Z,63.16
2018-11-06T07:36:15.351Z,63.78
2018-11-06T07:38:51.713Z,63.46
2018-11-06T07:41:27.705Z,61.57
2018-11-06T07:44:03.741Z,60.66
2018-11-06T07:46:39.812Z,58.47
2018-11-06T07:49:15.710Z,57.39
2018-11-06T07:51:51.770Z,57.62
2018-11-06T07:54:27.767Z,56.37
2018-11-06T07:57:03.570Z,55.65
2018-11-06T07:59:39.547Z,54.77
2018-11-06T08:02:17.287Z,55.63
2018-11-06T08:04:53.277Z,53.32
2018-11-06T08:07:29.297Z,53.00
2018-11-06T08:10:06.045Z,53.03
2018-11-06T08:12:45.154Z,52.98
2018-11-06T08:15:21.577Z,53.41
2018-11-06T08:17:57.412Z,52.05
2018-11-06T08:20:33.639Z,51.60
2018-11-06T08:23:09.713Z,50.55
2018-11-06T08:25:45.617Z,50.82
2018-11-06T08:28:21.581Z,51.52
2018-11-06T08:30:57.737Z,50.32
2018-11-06T08:33:33.638Z,49.13
2018-11-06T08:36:09.530Z,48.16
2018-11-06T08:38:50.759Z,47.66
2018-11-06T08:41:27.199Z,46.05
2018-11-06T08:44:03.056Z,46.23
2018-11-06T08:46:39.068Z,46.22
2018-11-06T08:49:15.000Z,44.17
2018-11-06T08:51:51.092Z,44.65
2018-11-06T08:54:27.327Z,42.89
2018-11-06T08:57:03.516Z,41.53
2018-11-06T08:59:34.421Z,42.15
2018-11-06T09:02:05.589Z,41.30
2018-11-06T09:04:42.746Z,39.52
2018-11-06T09:07:13.697Z,40.46
2018-11-06T09:09:44.755Z,40.44
2018-11-06T09:12:15.729Z,38.63
2018-11-06T09:14:46.681Z,38.56
2018-11-06T09:17:17.662Z,38.55
2018-11-06T09:19:48.540Z,39.04
2018-11-06T09:22:19.436Z,37.70
2018-11-06T09:24:50.316Z,38.17
2018-11-06T09:27:21.314Z,38.90
2018-11-06T09:29:52.226Z,38.73
2018-11-06T09:32:23.169Z,37.68
2018-11-06T09:34:54.093Z,38.28
2018-11-06T09:37:25.079Z,36.81
2018-11-06T09:39:55.948Z,37.00
2018-11-06T09:42:26.896Z,36.35
2018-11-06T09:46:27.010Z,36.39
2018-11-06T09:48:58.003Z,34.16
2018-11-06T09:51:28.903Z,33.61
2018-11-06T09:53:59.894Z,33.46
2018-11-06T09:56:30.857Z,31.92
2018-11-06T09:59:01.917Z,31.79
2018-11-06T10:01:32.885Z,31.16
2018-11-06T10:04:04.133Z,31.25
2018-11-06T10:06:35.118Z,30.12
2018-11-06T10:09:08.487Z,29.39
2018-11-06T10:11:40.729Z,27.62
2018-11-06T10:14:11.686Z,27.05
2018-11-06T10:16:42.587Z,27.89
2018-11-06T10:19:13.592Z,27.90
2018-11-06T10:21:44.540Z,30.02
2018-11-06T10:24:15.529Z,27.92
2018-11-06T10:26:51.855Z,24.79
2018-11-06T10:29:22.794Z,24.69
2018-11-06T10:31:53.763Z,24.54
2018-11-06T10:34:34.875Z,23.85
2018-11-06T10:37:08.986Z,23.64
2018-11-06T10:39:39.966Z,23.78
2018-11-06T10:42:11.032Z,23.56
2018-11-06T10:44:42.008Z,24.15
2018-11-06T10:47:12.900Z,23.85
2018-11-06T10:49:49.884Z,23.33
2018-11-06T10:52:21.059Z,23.58
2018-11-06T10:54:52.160Z,25.06
2018-11-06T10:57:23.060Z,23.48
2018-11-06T10:59:54.018Z,24.76
2018-11-06T11:02:30.441Z,24.35
2018-11-06T11:05:01.597Z,25.80
2018-11-06T11:07:32.557Z,24.83
2018-11-06T11:10:03.591Z,24.68
2018-11-06T11:12:34.608Z,25.08
2018-11-06T11:15:05.787Z,24.72
2018-11-06T11:17:36.700Z,24.54
2018-11-06T11:20:10.065Z,24.67
2018-11-06T11:22:41.628Z,24.02
2018-11-06T11:25:13.833Z,24.69
2018-11-06T11:27:45.652Z,24.69
2018-11-06T11:30:17.313Z,24.24
2018-11-06T11:32:48.903Z,24.54
2018-11-06T11:35:24.679Z,24.67
2018-11-06T11:37:55.632Z,24.08
2018-11-06T11:40:26.589Z,24.64
2018-11-06T11:42:57.503Z,23.98
2018-11-06T11:45:32.445Z,23.98
2018-11-06T11:48:03.406Z,23.87
2018-11-06T11:50:34.486Z,23.82
2018-11-06T11:53:05.545Z,23.70
2018-11-06T11:55:36.548Z,23.46
2018-11-06T11:58:07.685Z,23.57
2018-11-06T12:00:40.166Z,23.80
2018-11-06T12:03:11.127Z,24.11
2018-11-06T12:05:42.648Z,24.52
2018-11-06T12:08:13.549Z,24.23
2018-11-06T12:10:44.538Z,23.60
2018-11-06T12:13:15.446Z,23.61
2018-11-06T12:15:46.385Z,23.63
2018-11-06T12:18:17.342Z,23.86
2018-11-06T12:20:48.537Z,24.16
2018-11-06T12:23:19.505Z,23.94
2018-11-06T12:25:50.700Z,25.54
2018-11-06T12:28:21.670Z,25.47
2018-11-06T12:30:52.618Z,24.86
2018-11-06T12:33:23.769Z,24.71
2018-11-06T12:35:54.728Z,23.97
2018-11-06T12:38:25.618Z,25.80
2018-11-06T12:40:56.883Z,25.63
2018-11-06T12:43:33.028Z,25.26
2018-11-06T12:46:04.208Z,26.46
2018-11-06T12:48:35.125Z,26.10
2018-11-06T12:51:06.392Z,24.82
2018-11-06T12:53:37.364Z,23.87
2018-11-06T12:56:08.391Z,23.29
2018-11-06T12:58:39.499Z,24.43
2018-11-06T13:01:10.476Z,24.23
2018-11-06T13:03:41.383Z,23.18
2018-11-06T13:06:12.611Z,23.43
2018-11-06T13:08:48.348Z,23.30
2018-11-06T13:11:19.394Z,22.65
2018-11-06T13:13:54.726Z,20.95
2018-11-06T13:16:25.741Z,20.89
2018-11-06T13:18:56.845Z,22.09
2018-11-06T13:21:27.887Z,20.43
2018-11-06T13:23:58.776Z,20.27
2018-11-06T13:26:29.817Z,21.60
2018-11-06T13:29:05.745Z,20.81
2018-11-06T13:31:36.707Z,19.42
2018-11-06T13:34:07.748Z,19.34
2018-11-06T13:36:38.875Z,19.91
2018-11-06T13:39:11.681Z,19.56
2018-11-06T13:41:44.925Z,20.09
2018-11-06T13:44:16.269Z,21.37
2018-11-06T13:46:49.732Z,24.04
2018-11-06T13:49:24.741Z,25.70
2018-11-06T13:52:00.070Z,26.44
2018-11-06T13:54:31.028Z,28.25
2018-11-06T13:57:06.056Z,29.65
2018-11-06T13:59:41.458Z,30.00
2018-11-06T14:02:17.008Z,29.78
2018-11-06T14:04:47.949Z,30.33
2018-11-06T14:07:19.101Z,30.29
2018-11-06T14:09:50.046Z,31.47
2018-11-06T14:12:21.016Z,31.52
2018-11-06T14:14:52.002Z,32.31
2018-11-06T14:17:23.921Z,32.92
2018-11-06T14:19:54.894Z,32.45
2018-11-06T14:22:26.955Z,33.39
2018-11-06T14:24:57.960Z,33.97
2018-11-06T14:27:29.118Z,34.15
2018-11-06T14:30:00.205Z,34.99
2018-11-06T14:32:31.193Z,35.10
2018-11-06T14:35:02.316Z,36.14
2018-11-06T14:37:33.374Z,35.76
2018-11-06T14:40:04.410Z,37.12
2018-11-06T14:42:35.503Z,36.48
2018-11-06T14:45:08.860Z,36.86
2018-11-06T14:47:40.003Z,37.86
2018-11-06T14:50:17.009Z,40.09
2018-11-06T14:52:48.342Z,40.56
2018-11-06T14:55:19.338Z,41.60
2018-11-06T14:57:51.242Z,41.99
2018-11-06T15:00:22.700Z,43.28
2018-11-06T15:02:54.446Z,42.86
2018-11-06T15:05:33.462Z,43.08
2018-11-06T15:08:04.927Z,43.13
2018-11-06T15:10:35.854Z,44.17
2018-11-06T15:13:06.988Z,43.80
2018-11-06T15:15:37.940Z,44.65
2018-11-06T15:18:08.935Z,44.09
2018-11-06T15:20:39.992Z,44.06
2018-11-06T15:23:11.237Z,44.79
2018-11-06T15:25:43.014Z,44.72
2018-11-06T15:28:14.428Z,45.53
2018-11-06T15:30:45.337Z,45.84
2018-11-06T15:33:16.364Z,45.89
2018-11-06T15:35:51.390Z,45.28
2018-11-06T15:38:22.460Z,45.50
2018-11-06T15:40:53.499Z,46.24
2018-11-06T15:43:24.693Z,48.71
2018-11-06T15:45:55.646Z,47.01
2018-11-06T15:48:26.675Z,46.29
2018-11-06T15:50:57.774Z,47.21
2018-11-06T15:53:28.789Z,48.24
2018-11-06T15:56:00.026Z,47.77
2018-11-06T15:58:31.020Z,48.21
2018-11-06T16:01:04.768Z,51.00
2018-11-06T16:03:36.061Z,52.44
2018-11-06T16:06:09.685Z,53.43
2018-11-06T16:08:47.072Z,55.06
2018-11-06T16:11:18.069Z,55.56
2018-11-06T16:13:49.031Z,55.93
2018-11-06T16:16:20.958Z,56.32
2018-11-06T16:18:52.086Z,56.26
2018-11-06T16:21:22.990Z,56.29
2018-11-06T16:23:54.044Z,56.06
2018-11-06T16:26:27.146Z,56.02
2018-11-06T16:28:58.183Z,55.87
2018-11-06T16:31:29.175Z,56.41
2018-11-06T16:34:00.535Z,57.72
2018-11-06T16:36:31.608Z,57.81
2018-11-06T16:39:03.450Z,57.53
2018-11-06T16:41:35.733Z,59.56
2018-11-06T16:44:06.937Z,59.87
2018-11-06T16:46:37.970Z,57.83
2018-11-06T16:49:09.125Z,59.72
2018-11-06T16:51:40.067Z,60.29
2018-11-06T16:54:11.109Z,60.79
2018-11-06T16:56:42.438Z,62.82
2018-11-06T16:59:13.876Z,60.08
2018-11-06T17:01:44.877Z,60.07
2018-11-06T17:04:15.883Z,61.80
2018-11-06T17:06:49.179Z,60.01
2018-11-06T17:09:21.339Z,59.05
2018-11-06T17:11:52.276Z,59.11
2018-11-06T17:14:23.223Z,59.18
2018-11-06T17:16:54.206Z,59.09
2018-11-06T17:19:25.244Z,59.31
2018-11-06T17:21:56.202Z,60.42
2018-11-06T17:24:27.529Z,61.29
2018-11-06T17:26:58.453Z,62.12
2018-11-06T17:29:29.408Z,62.35
2018-11-06T17:32:00.616Z,62.76
2018-11-06T17:34:31.615Z,63.97
2018-11-06T17:37:02.508Z,61.41
2018-11-06T17:39:33.951Z,62.27
2018-11-06T17:42:05.507Z,62.99
2018-11-06T17:44:42.106Z,64.01
2018-11-06T17:47:16.342Z,63.11
2018-11-06T17:49:52.764Z,62.99
2018-11-06T17:52:23.744Z,64.08
2018-11-06T17:54:54.860Z,63.79
2018-11-06T17:57:26.283Z,65.38
2018-11-06T17:59:57.264Z,66.10
2018-11-06T18:02:28.241Z,67.03
2018-11-06T18:05:00.166Z,67.41
2018-11-06T18:07:31.202Z,67.86
2018-11-06T18:10:02.368Z,66.21
2018-11-06T18:12:37.567Z,66.60
2018-11-06T18:15:08.594Z,66.83
2018-11-06T18:17:40.647Z,67.27
2018-11-06T18:20:13.481Z,67.17
2018-11-06T18:22:45.084Z,67.24
2018-11-06T18:25:16.620Z,67.15
2018-11-06T18:27:47.765Z,67.48
2018-11-06T18:30:19.481Z,66.75
2018-11-06T18:32:50.636Z,66.24
2018-11-06T18:35:21.728Z,67.23
2018-11-06T18:37:52.695Z,67.26
2018-11-06T18:40:23.753Z,68.18
2018-11-06T18:42:54.784Z,68.37
2018-11-06T18:45:25.823Z,69.76
2018-11-06T18:47:57.478Z,68.66
2018-11-06T18:50:28.678Z,69.04
2018-11-06T18:53:04.245Z,67.63
2018-11-06T18:55:35.949Z,67.76
2018-11-06T18:58:07.083Z,67.80
2018-11-06T19:00:38.351Z,66.95
2018-11-06T19:03:09.433Z,66.94
2018-11-06T19:05:40.930Z,67.39
2018-11-06T19:08:11.866Z,67.74
2018-11-06T19:10:44.787Z,66.82
2018-11-06T19:13:15.935Z,66.65
2018-11-06T19:15:47.326Z,67.64
2018-11-06T19:18:19.940Z,67.17
2018-11-06T19:20:51.320Z,68.42
2018-11-06T19:23:23.192Z,67.51
2018-11-06T19:25:54.699Z,67.12
2018-11-06T19:28:25.781Z,67.95
2018-11-06T19:30:56.834Z,68.22
2018-11-06T19:33:28.003Z,68.66
2018-11-06T19:35:59.351Z,68.87
2018-11-06T19:38:30.737Z,68.45
2018-11-06T19:41:01.784Z,69.44
2018-11-06T19:43:32.785Z,68.47
2018-11-06T19:46:09.077Z,68.44
2018-11-06T19:48:40.182Z,68.86
2018-11-06T19:51:11.320Z,70.13
2018-11-06T19:53:42.670Z,71.96
2018-11-06T19:56:14.415Z,69.05
2018-11-06T19:58:45.378Z,70.27
2018-11-06T20:01:16.564Z,68.27
2018-11-06T20:03:47.766Z,67.86
2018-11-06T20:06:18.871Z,67.81
2018-11-06T20:09:07.948Z,70.15
2018-11-06T20:11:39.735Z,70.50
2018-11-06T20:14:11.101Z,71.45
2018-11-06T20:16:42.468Z,73.67
2018-11-06T20:19:13.468Z,74.71
2018-11-06T20:21:44.411Z,75.50
2018-11-06T20:24:15.497Z,75.19
2018-11-06T20:26:46.724Z,75.06
2018-11-06T20:29:18.255Z,76.03
2018-11-06T20:31:49.802Z,76.45
2018-11-06T20:34:20.742Z,76.55
2018-11-06T20:36:52.358Z,75.57
2018-11-06T20:39:23.252Z,76.27
2018-11-06T20:41:54.302Z,75.97
2018-11-06T20:44:25.326Z,76.01
2018-11-06T20:46:56.305Z,75.94
2018-11-06T20:49:27.363Z,76.51
2018-11-06T20:51:58.365Z,77.33
2018-11-06T20:54:29.258Z,78.01
2018-11-06T20:57:00.741Z,78.32
2018-11-06T20:59:36.706Z,78.55
2018-11-06T21:02:12.818Z,78.55
2018-11-06T21:04:49.652Z,79.11
2018-11-06T21:07:26.232Z,79.66
2018-11-06T21:10:03.028Z,78.98
2018-11-06T21:12:39.507Z,79.22
2018-11-06T21:15:15.400Z,78.28
2018-11-06T21:17:54.831Z,77.44
2018-11-06T21:20:31.108Z,78.21
2018-11-06T21:23:07.149Z,78.75
2018-11-06T21:25:43.530Z,78.25
2018-11-06T21:28:19.609Z,78.53
2018-11-06T21:30:55.644Z,78.63
2018-11-06T21:33:31.680Z,80.13
2018-11-06T21:36:07.758Z,79.64
2018-11-06T21:38:43.741Z,78.03
2018-11-06T21:41:19.572Z,78.99
2018-11-06T21:43:55.523Z,80.06
2018-11-06T21:46:31.477Z,80.92
2018-11-06T21:49:07.507Z,81.53
2018-11-06T21:51:43.556Z,82.75
2018-11-06T21:54:19.483Z,81.77
2018-11-06T21:56:55.487Z,81.46
2018-11-06T21:59:31.943Z,81.77
2018-11-06T22:02:08.372Z,80.39
2018-11-06T22:04:44.220Z,79.44
2018-11-06T22:07:20.170Z,78.29
2018-11-06T22:09:56.103Z,78.64
2018-11-06T22:12:31.983Z,78.61
2018-11-06T22:15:09.721Z,77.89
2018-11-06T22:17:45.548Z,75.71
2018-11-06T22:20:21.849Z,78.62
2018-11-06T22:22:57.720Z,79.49
2018-11-06T22:25:38.814Z,80.97
2018-11-06T22:28:14.713Z,81.87
2018-11-06T22:30:50.903Z,82.17
2018-11-06T22:33:27.102Z,82.10
2018-11-06T22:36:03.351Z,80.52
2018-11-06T22:38:39.188Z,80.44
2018-11-06T22:41:15.344Z,79.87
2018-11-06T22:43:51.166Z,79.99
2018-11-06T22:46:27.191Z,81.66
2018-11-06T22:49:03.335Z,82.41
2018-11-06T22:51:39.400Z,82.31
2018-11-06T22:54:15.226Z,81.80
2018-11-06T22:56:51.267Z,81.56
2018-11-06T22:59:27.577Z,81.94
2018-11-06T23:02:03.600Z,81.15
2018-11-06T23:04:39.648Z,81.42
2018-11-06T23:07:20.576Z,80.76
2018-11-06T23:09:56.753Z,81.56
2018-11-06T23:12:33.293Z,81.14
2018-11-06T23:15:09.368Z,80.71
2018-11-06T23:17:46.241Z,81.70
2018-11-06T23:20:22.408Z,81.67
2018-11-06T23:22:58.462Z,84.15
2018-11-06T23:25:34.305Z,85.11
2018-11-06T23:28:10.533Z,85.53
2018-11-06T23:30:46.373Z,85.60
2018-11-06T23:33:22.442Z,86.78
2018-11-06T23:35:58.636Z,87.23
2018-11-06T23:38:34.620Z,87.07
2018-11-06T23:41:10.491Z,86.39
2018-11-06T23:43:46.543Z,85.17
2018-11-06T23:46:22.516Z,84.94
2018-11-06T23:48:58.371Z,84.91
2018-11-06T23:51:34.188Z,84.03
2018-11-06T23:54:10.044Z,83.94
2018-11-06T23:56:45.909Z,84.15
2018-11-06T23:59:21.957Z,83.95
